Time;durP1;ratioP1;P1;durP2;ratioP2;P2;SDS_P1;SDS_P2;PMS_P1;PMS_P2;Temp;Humidity;BMP_temperature;BMP_pressure;BME280_temperature;BME280_humidity;BME280_pressure;Samples;Min_cycle;Max_cycle;Signal;HPM_P1;HPM_P2
2022/10/15 00:01:41;;;;;;;;;;;;;;;12.98;68.83;99790.94;4443458;32;34342;-92
2022/10/15 00:04:14;;;;;;;;;;;;;;;12.85;69.33;99792.06;4443716;32;32599;-93
2022/10/15 00:06:52;;;;;;;;;;;;;;;12.84;69.30;99785.16;4448718;32;34943;-92
2022/10/15 00:09:28;;;;;;;;;;;;;;;12.86;69.27;99786.84;4443136;32;33334;-89
2022/10/15 00:11:57;;;;;;;;;;;;;;;12.91;68.97;99787.59;4436820;32;33499;-90
2022/10/15 00:14:27;;;;;;;;;;;;;;;12.78;69.33;99791.31;4434693;32;35215;-88
2022/10/15 00:16:56;;;;;;;;;;;;;;;12.62;70.09;99790.78;4452582;32;33516;-89
2022/10/15 00:19:32;;;;;;;;;;;;;;;12.76;69.39;99786.16;4451856;32;33021;-91
2022/10/15 00:22:02;;;;;;;;;;;;;;;12.82;69.24;99791.22;4448607;32;33343;-88
2022/10/15 00:24:33;;;;;;;;;;;;;;;12.78;69.25;99797.41;4446416;32;34054;-90
2022/10/15 00:27:02;;;;;;;;;;;;;;;12.70;69.77;99788.03;4447687;32;32773;-92
2022/10/15 00:29:31;;;;;;;;;;;;;;;12.82;69.05;99785.19;4452704;32;34144;-90
2022/10/15 00:32:00;;;;;;;;;;;;;;;12.92;68.79;99786.69;4447684;32;32350;-89
2022/10/15 00:34:33;;;;;;;;;;;;;;;12.90;68.83;99783.28;4441845;32;34014;-92
2022/10/15 00:37:03;;;;;;;;;;;;;;;12.89;68.81;99788.50;4448389;32;34051;-92
2022/10/15 00:39:37;;;;;;;;;;;;;;;12.88;68.95;99778.97;4451989;32;32397;-90
2022/10/15 00:42:06;;;;;;;;;;;;;;;12.86;68.98;99772.97;4452782;32;33627;-90
2022/10/15 00:44:47;;;;;;;;;;;;;;;12.90;68.83;99774.59;4433042;32;33416;-89
2022/10/15 00:47:16;;;;;;;;;;;;;;;12.98;68.30;99775.31;4434028;32;33761;-89
2022/10/15 00:49:46;;;;;;;;;;;;;;;13.01;67.78;99770.03;4433049;32;32173;-89
2022/10/15 00:52:20;;;;;;;;;;;;;;;12.89;68.22;99763.31;4444956;32;33197;-90
2022/10/15 00:54:51;;;;;;;;;;;;;;;12.86;68.14;99759.94;4429200;32;32876;-89
2022/10/15 00:57:23;;;;;;;;;;;;;;;12.93;67.53;99761.53;4447638;32;33781;-88
2022/10/15 00:59:52;;;;;;;;;;;;;;;12.82;68.03;99757.37;4467806;32;32649;-93
2022/10/15 01:02:24;;;;;;;;;;;;;;;12.91;67.77;99760.69;4454042;32;33917;-94
2022/10/15 01:04:53;;;;;;;;;;;;;;;12.64;68.48;99760.41;4438534;32;33012;-92
2022/10/15 01:07:26;;;;;;;;;;;;;;;12.69;68.22;99760.31;4448890;32;34076;-92
2022/10/15 01:09:55;;;;;;;;;;;;;;;12.64;68.28;99754.34;4451905;32;32952;-89
2022/10/15 01:12:28;;;;;;;;;;;;;;;12.61;68.42;99755.22;4443097;32;33122;-90
2022/10/15 01:14:59;;;;;;;;;;;;;;;12.67;68.15;99751.66;4454221;32;33949;-89
2022/10/15 01:17:39;;;;;;;;;;;;;;;12.63;68.10;99758.66;4468512;32;34037;-89
2022/10/15 01:20:25;;;;;;;;;;;;;;;12.59;68.21;99752.69;4465550;32;32889;-91
2022/10/15 01:23:19;;;;;;;;;;;;;;;12.64;68.18;99751.72;4450713;32;34212;-92
2022/10/15 01:26:01;;;;;;;;;;;;;;;12.52;68.68;99756.28;4448148;32;35321;-88
2022/10/15 01:28:32;;;;;;;;;;;;;;;12.55;68.41;99755.38;4456225;32;33082;-89
2022/10/15 01:31:12;;;;;;;;;;;;;;;12.59;68.17;99754.44;4463287;32;33213;-89
2022/10/15 01:33:42;;;;;;;;;;;;;;;12.62;68.05;99743.94;4468279;32;34495;-89
2022/10/15 01:36:13;;;;;;;;;;;;;;;12.64;68.53;99747.38;4463590;32;36553;-90
2022/10/15 01:38:45;;;;;;;;;;;;;;;12.66;68.63;99747.31;4463707;32;33153;-90
2022/10/15 01:41:15;;;;;;;;;;;;;;;12.66;68.61;99736.91;4462222;32;33713;-89
2022/10/15 01:43:45;;;;;;;;;;;;;;;12.67;68.71;99739.50;4442988;32;33452;-90
2022/10/15 01:46:19;;;;;;;;;;;;;;;12.67;68.82;99739.50;4448166;32;33397;-94
2022/10/15 01:48:50;;;;;;;;;;;;;;;12.73;68.53;99742.00;4436034;32;32196;-89
2022/10/15 01:51:23;;;;;;;;;;;;;;;12.74;68.46;99742.84;4434792;32;31209;-91
2022/10/15 01:54:01;;;;;;;;;;;;;;;12.82;68.11;99741.75;4448249;32;33280;-95
2022/10/15 01:56:37;;;;;;;;;;;;;;;12.84;68.25;99733.09;4452350;32;33853;-93
2022/10/15 01:59:09;;;;;;;;;;;;;;;12.82;68.16;99733.97;4447581;32;33700;-89
2022/10/15 02:01:41;;;;;;;;;;;;;;;12.95;67.49;99741.50;4461234;32;32983;-92
2022/10/15 02:04:17;;;;;;;;;;;;;;;12.80;68.21;99743.53;4463633;32;33558;-90
2022/10/15 02:06:47;;;;;;;;;;;;;;;12.70;68.37;99743.78;4462905;32;33713;-88
2022/10/15 02:09:23;;;;;;;;;;;;;;;12.78;68.21;99745.34;4457781;32;34542;-89
2022/10/15 02:11:57;;;;;;;;;;;;;;;12.83;67.79;99750.47;4456203;32;32708;-90
2022/10/15 02:14:28;;;;;;;;;;;;;;;12.83;67.74;99745.25;4448575;32;32583;-88
2022/10/15 02:17:05;;;;;;;;;;;;;;;12.80;67.63;99740.09;4463130;32;33712;-89
2022/10/15 02:19:36;;;;;;;;;;;;;;;12.73;67.98;99749.78;4462819;32;35141;-92
2022/10/15 02:22:08;;;;;;;;;;;;;;;12.64;68.16;99747.38;4452692;32;31928;-89
2022/10/15 02:24:41;;;;;;;;;;;;;;;12.78;67.45;99744.47;4463499;32;35217;-90
2022/10/15 02:27:10;;;;;;;;;;;;;;;12.72;67.62;99744.63;4463418;32;33397;-91
2022/10/15 02:29:43;;;;;;;;;;;;;;;12.66;67.58;99742.13;4452851;32;32143;-89
2022/10/15 02:32:17;;;;;;;;;;;;;;;12.68;67.67;99740.34;4455953;32;33871;-93
2022/10/15 02:34:49;;;;;;;;;;;;;;;12.58;67.59;99730.12;4452864;32;34704;-89
2022/10/15 02:37:19;;;;;;;;;;;;;;;12.59;67.74;99736.22;4448044;32;34704;-89
2022/10/15 02:39:47;;;;;;;;;;;;;;;12.57;67.52;99730.19;4454937;32;33455;-90
2022/10/15 02:42:16;;;;;;;;;;;;;;;12.38;68.20;99734.87;4448425;32;32338;-90
2022/10/15 02:44:49;;;;;;;;;;;;;;;12.57;67.44;99725.81;4468040;32;34632;-90
2022/10/15 02:47:19;;;;;;;;;;;;;;;12.51;67.49;99723.34;4462883;32;33657;-93
2022/10/15 02:49:49;;;;;;;;;;;;;;;12.44;67.64;99724.34;4461473;32;32639;-89
2022/10/15 02:52:18;;;;;;;;;;;;;;;12.48;67.67;99730.34;4455932;32;33304;-91
2022/10/15 02:54:50;;;;;;;;;;;;;;;12.29;68.08;99728.09;4462933;32;33604;-90
2022/10/15 02:57:19;;;;;;;;;;;;;;;12.41;67.99;99731.38;4467114;32;33845;-89
2022/10/15 02:59:48;;;;;;;;;;;;;;;12.44;67.99;99726.09;4462796;32;33972;-89
2022/10/15 03:02:21;;;;;;;;;;;;;;;12.36;68.43;99724.50;4462701;32;34109;-88
2022/10/15 03:04:56;;;;;;;;;;;;;;;12.46;68.40;99719.13;4463129;32;35485;-90
2022/10/15 03:07:24;;;;;;;;;;;;;;;12.38;68.66;99721.88;4467419;32;34289;-90
2022/10/15 03:09:56;;;;;;;;;;;;;;;12.51;68.68;99706.88;4448638;32;34599;-89
2022/10/15 03:12:25;;;;;;;;;;;;;;;12.24;69.76;99711.75;4446950;32;33023;-89
2022/10/15 03:14:56;;;;;;;;;;;;;;;12.37;69.40;99715.84;4447334;32;34730;-88
2022/10/15 03:17:26;;;;;;;;;;;;;;;12.39;69.02;99715.78;4449514;32;34884;-90
2022/10/15 03:19:58;;;;;;;;;;;;;;;12.47;69.39;99715.66;4464937;32;34165;-89
2022/10/15 03:22:27;;;;;;;;;;;;;;;12.47;69.24;99711.28;4463396;32;33334;-90
2022/10/15 03:24:56;;;;;;;;;;;;;;;12.50;69.02;99706.03;4462344;32;33931;-88
2022/10/15 03:27:26;;;;;;;;;;;;;;;12.36;69.52;99708.91;4463239;32;34866;-94
2022/10/15 03:30:02;;;;;;;;;;;;;;;12.41;69.48;99705.34;4453520;32;34910;-92
2022/10/15 03:32:34;;;;;;;;;;;;;;;12.57;68.47;99705.00;4451379;32;33342;-92
2022/10/15 03:35:09;;;;;;;;;;;;;;;12.43;68.60;99711.37;4447104;32;34440;-88
2022/10/15 03:37:39;;;;;;;;;;;;;;;12.48;68.62;99719.94;4453104;32;33837;-89
2022/10/15 03:40:12;;;;;;;;;;;;;;;12.48;68.25;99717.34;4462789;32;34135;-90
2022/10/15 03:42:48;;;;;;;;;;;;;;;12.40;68.18;99724.47;4467529;32;32760;-91
2022/10/15 03:45:18;;;;;;;;;;;;;;;12.46;67.95;99724.31;4465728;32;34355;-88
2022/10/15 03:47:58;;;;;;;;;;;;;;;12.38;67.98;99719.28;4461692;32;33752;-88
2022/10/15 03:50:29;;;;;;;;;;;;;;;12.30;68.20;99713.38;4447069;32;34268;-92
2022/10/15 03:53:02;;;;;;;;;;;;;;;12.11;68.60;99718.09;4446701;32;33051;-92
2022/10/15 03:55:39;;;;;;;;;;;;;;;11.93;69.97;99721.88;4451737;32;33513;-88
2022/10/15 03:58:08;;;;;;;;;;;;;;;12.11;69.62;99721.53;4447937;32;34690;-89
2022/10/15 04:00:41;;;;;;;;;;;;;;;12.11;69.63;99721.53;4450092;32;33584;-89
2022/10/15 04:03:14;;;;;;;;;;;;;;;12.14;69.53;99718.87;4461578;32;33269;-89
2022/10/15 04:05:51;;;;;;;;;;;;;;;12.09;69.29;99715.50;4463526;32;33861;-90
2022/10/15 04:08:29;;;;;;;;;;;;;;;12.21;69.26;99714.41;4468248;32;34260;-88
2022/10/15 04:11:01;;;;;;;;;;;;;;;12.09;69.81;99707.69;4466932;32;34228;-88
2022/10/15 04:13:29;;;;;;;;;;;;;;;11.97;70.46;99707.94;4464098;32;33200;-89
2022/10/15 04:16:03;;;;;;;;;;;;;;;12.02;70.45;99707.84;4464385;32;33519;-89
2022/10/15 04:18:36;;;;;;;;;;;;;;;12.02;70.27;99705.25;4462089;32;33758;-90
2022/10/15 04:21:09;;;;;;;;;;;;;;;12.02;70.21;99703.50;4454567;32;34755;-87
2022/10/15 04:23:38;;;;;;;;;;;;;;;12.13;70.27;99703.31;4463930;32;33047;-89
2022/10/15 04:26:16;;;;;;;;;;;;;;;12.26;69.63;99712.56;4464321;32;33637;-91
2022/10/15 04:28:52;;;;;;;;;;;;;;;12.20;69.87;99717.03;4460844;32;33705;-89
2022/10/15 04:31:27;;;;;;;;;;;;;;;12.35;69.30;99717.59;4463953;32;33907;-90
2022/10/15 04:33:58;;;;;;;;;;;;;;;12.09;69.85;99717.25;4454536;32;32439;-89
2022/10/15 04:36:29;;;;;;;;;;;;;;;12.13;70.29;99721.53;4464382;32;34194;-90
2022/10/15 04:38:58;;;;;;;;;;;;;;;12.37;69.72;99726.25;4460740;32;34746;-89
2022/10/15 04:41:29;;;;;;;;;;;;;;;12.37;69.81;99723.62;4434340;32;33125;-89
2022/10/15 04:44:05;;;;;;;;;;;;;;;12.22;70.23;99728.28;4464517;32;33428;-92
2022/10/15 04:46:44;;;;;;;;;;;;;;;12.37;70.05;99730.56;4469390;32;34847;-88
2022/10/15 04:49:23;;;;;;;;;;;;;;;12.33;70.10;99726.31;4464991;32;33954;-89
2022/10/15 04:51:52;;;;;;;;;;;;;;;12.27;70.48;99722.06;4466757;32;33452;-91
2022/10/15 04:54:22;;;;;;;;;;;;;;;12.20;70.63;99714.44;4464829;32;33503;-90
2022/10/15 04:56:54;;;;;;;;;;;;;;;12.15;70.41;99718.00;4450903;32;33301;-88
2022/10/15 04:59:23;;;;;;;;;;;;;;;12.24;70.37;99713.50;4459891;32;34492;-91
2022/10/15 05:01:58;;;;;;;;;;;;;;;12.19;70.81;99717.94;4450509;32;34024;-88
2022/10/15 05:04:28;;;;;;;;;;;;;;;12.14;71.24;99718.87;4448022;32;33486;-88
2022/10/15 05:06:57;;;;;;;;;;;;;;;12.23;70.86;99723.03;4449048;32;33514;-89
2022/10/15 05:09:26;;;;;;;;;;;;;;;12.28;70.53;99722.97;4464931;32;33882;-88
2022/10/15 05:11:55;;;;;;;;;;;;;;;12.28;70.49;99726.41;4465224;32;34378;-88
2022/10/15 05:14:30;;;;;;;;;;;;;;;12.27;70.59;99718.63;4463748;32;33877;-91
2022/10/15 05:17:03;;;;;;;;;;;;;;;12.41;69.87;99723.56;4464292;32;34935;-91
2022/10/15 05:19:36;;;;;;;;;;;;;;;12.40;70.00;99727.06;4453942;32;33901;-88
2022/10/15 05:22:12;;;;;;;;;;;;;;;12.20;70.32;99728.28;4452870;32;34860;-91
2022/10/15 05:24:45;;;;;;;;;;;;;;;12.03;71.13;99728.59;4448036;32;32850;-88
2022/10/15 05:27:14;;;;;;;;;;;;;;;12.19;70.62;99729.19;4449775;32;33504;-88
2022/10/15 05:29:45;;;;;;;;;;;;;;;12.38;70.05;99732.28;4460173;32;34124;-89
2022/10/15 05:32:15;;;;;;;;;;;;;;;12.07;71.22;99737.22;4452752;32;34899;-87
2022/10/15 05:34:51;;;;;;;;;;;;;;;12.23;70.71;99728.25;4453231;32;33723;-89
2022/10/15 05:37:19;;;;;;;;;;;;;;;12.17;71.20;99725.75;4448052;32;34079;-92
2022/10/15 05:39:50;;;;;;;;;;;;;;;12.10;71.43;99719.81;4455438;32;34129;-90
2022/10/15 05:42:19;;;;;;;;;;;;;;;12.30;70.96;99719.44;4463834;32;33300;-90
2022/10/15 05:44:48;;;;;;;;;;;;;;;12.43;70.78;99720.03;4468709;32;32844;-88
2022/10/15 05:47:18;;;;;;;;;;;;;;;12.35;70.89;99712.41;4463714;32;34515;-89
2022/10/15 05:49:57;;;;;;;;;;;;;;;12.50;70.67;99723.38;4462202;32;34165;-89
2022/10/15 05:52:26;;;;;;;;;;;;;;;12.54;70.42;99723.28;4450249;32;33673;-88
2022/10/15 05:54:57;;;;;;;;;;;;;;;12.46;70.78;99725.19;4448270;32;33228;-89
2022/10/15 05:57:27;;;;;;;;;;;;;;;12.47;70.86;99726.91;4452254;32;35016;-90
2022/10/15 05:59:56;;;;;;;;;;;;;;;12.42;71.07;99730.47;4450803;32;34191;-88
2022/10/15 06:02:25;;;;;;;;;;;;;;;12.44;70.79;99731.31;4462513;32;33590;-91
2022/10/15 06:04:59;;;;;;;;;;;;;;;12.35;71.15;99730.59;4462562;32;33563;-88
2022/10/15 06:07:28;;;;;;;;;;;;;;;12.39;71.14;99731.38;4467561;32;34223;-88
2022/10/15 06:10:03;;;;;;;;;;;;;;;12.41;71.62;99739.19;4468373;32;34903;-91
2022/10/15 06:12:34;;;;;;;;;;;;;;;12.34;71.74;99736.69;4463906;32;33404;-92
2022/10/15 06:15:09;;;;;;;;;;;;;;;12.63;70.91;99755.22;4448572;32;32953;-91
2022/10/15 06:17:40;;;;;;;;;;;;;;;12.51;71.53;99753.72;4455544;32;34804;-90
2022/10/15 06:20:12;;;;;;;;;;;;;;;12.47;71.90;99759.88;4452429;32;34553;-90
2022/10/15 06:22:47;;;;;;;;;;;;;;;12.32;72.80;99759.28;4447679;32;34449;-89
2022/10/15 06:25:15;;;;;;;;;;;;;;;12.44;72.62;99763.38;4449269;32;33412;-91
2022/10/15 06:27:46;;;;;;;;;;;;;;;12.58;72.47;99761.34;4452089;32;33837;-89
2022/10/15 06:30:16;;;;;;;;;;;;;;;12.53;73.10;99764.94;4452983;32;32884;-92
2022/10/15 06:32:47;;;;;;;;;;;;;;;12.59;72.87;99762.25;4452931;32;34832;-89
2022/10/15 06:35:18;;;;;;;;;;;;;;;12.84;72.14;99765.19;4437658;32;33574;-88
2022/10/15 06:37:48;;;;;;;;;;;;;;;12.71;73.14;99774.13;4454040;32;34657;-92
2022/10/15 06:40:17;;;;;;;;;;;;;;;12.80;73.42;99771.31;4446470;32;34202;-92
2022/10/15 06:42:50;;;;;;;;;;;;;;;13.07;72.17;99766.41;4450473;32;34434;-89
2022/10/15 06:45:19;;;;;;;;;;;;;;;13.27;71.56;99764.25;4440024;32;31427;-90
2022/10/15 06:47:51;;;;;;;;;;;;;;;13.41;71.48;99774.38;4458934;32;33595;-91
2022/10/15 06:50:21;;;;;;;;;;;;;;;13.47;71.44;99770.75;4450015;32;34476;-93
2022/10/15 06:52:54;;;;;;;;;;;;;;;13.51;71.34;99773.25;4431343;32;34355;-91
2022/10/15 06:55:27;;;;;;;;;;;;;;;13.42;72.43;99776.94;4459972;32;35032;-90
2022/10/15 06:58:04;;;;;;;;;;;;;;;13.45;72.58;99779.44;4438155;32;36409;-89
2022/10/15 07:00:35;;;;;;;;;;;;;;;13.70;71.58;99785.81;4447849;32;35910;-89
2022/10/15 07:03:07;;;;;;;;;;;;;;;13.75;71.22;99783.97;4441947;32;34201;-94
2022/10/15 07:05:37;;;;;;;;;;;;;;;13.81;70.95;99792.50;4435416;32;34304;-94
2022/10/15 07:08:06;;;;;;;;;;;;;;;13.90;70.78;99798.41;4451622;32;34208;-90
2022/10/15 07:10:39;;;;;;;;;;;;;;;13.55;72.42;99800.94;4451772;32;35120;-89
2022/10/15 07:13:08;;;;;;;;;;;;;;;13.72;71.62;99800.53;4446508;32;35056;-90
2022/10/15 07:15:40;;;;;;;;;;;;;;;13.74;72.02;99798.75;4462042;32;33299;-90
2022/10/15 07:18:11;;;;;;;;;;;;;;;13.95;70.75;99806.97;4452393;32;35152;-90
2022/10/15 07:20:42;;;;;;;;;;;;;;;13.95;70.69;99797.38;4449619;32;35237;-91
2022/10/15 07:23:12;;;;;;;;;;;;;;;13.94;71.02;99789.56;4453275;32;34413;-91
2022/10/15 07:25:42;;;;;;;;;;;;;;;14.05;70.51;99791.03;4446751;32;34586;-93
2022/10/15 07:28:11;;;;;;;;;;;;;;;14.17;70.17;99783.78;4435023;32;34389;-92
2022/10/15 07:30:45;;;;;;;;;;;;;;;14.09;70.60;99790.06;4465584;32;35083;-93
2022/10/15 07:33:14;;;;;;;;;;;;;;;14.38;69.27;99783.22;4440505;32;34416;-90
2022/10/15 07:35:52;;;;;;;;;;;;;;;14.03;71.23;99779.75;4437951;32;33506;-95
2022/10/15 07:38:21;;;;;;;;;;;;;;;14.12;70.69;99783.91;4447489;32;35132;-94
2022/10/15 07:40:57;;;;;;;;;;;;;;;14.48;69.85;99783.81;4449721;32;32626;-90
2022/10/15 07:43:30;;;;;;;;;;;;;;;14.37;70.62;99786.69;4450670;32;33843;-91
2022/10/15 07:46:00;;;;;;;;;;;;;;;14.36;70.76;99787.59;4447200;32;32798;-92
2022/10/15 07:48:31;;;;;;;;;;;;;;;14.52;70.89;99783.69;4465773;32;33217;-90
2022/10/15 07:51:03;;;;;;;;;;;;;;;14.83;68.91;99790.66;4458310;32;34910;-92
2022/10/15 07:53:43;;;;;;;;;;;;;;;14.61;69.91;99786.97;4453886;32;34759;-92
2022/10/15 07:56:21;;;;;;;;;;;;;;;14.97;67.97;99789.41;4458988;32;33575;-91
2022/10/15 07:59:00;;;;;;;;;;;;;;;14.86;68.92;99785.38;4457182;32;33538;-91
2022/10/15 08:01:40;;;;;;;;;;;;;;;15.09;67.67;99795.13;4429175;32;33289;-92
2022/10/15 08:04:12;;;;;;;;;;;;;;;15.26;66.81;99801.59;4441453;32;33162;-93
2022/10/15 08:06:51;;;;;;;;;;;;;;;15.03;68.16;99797.94;4448788;32;34201;-91
2022/10/15 08:09:24;;;;;;;;;;;;;;;15.05;67.81;99800.47;4460280;32;33792;-90
2022/10/15 08:11:53;;;;;;;;;;;;;;;15.04;67.19;99806.62;4459043;32;34198;-90
2022/10/15 08:14:22;;;;;;;;;;;;;;;15.21;66.69;99816.56;4455646;32;33435;-90
2022/10/15 08:16:53;;;;;;;;;;;;;;;15.32;66.38;99817.13;4441333;32;34006;-89
2022/10/15 08:19:26;;;;;;;;;;;;;;;15.11;67.07;99806.38;4442050;32;33440;-90
2022/10/15 08:21:57;;;;;;;;;;;;;;;15.30;66.54;99809.31;4457124;32;34508;-91
2022/10/15 08:24:29;;;;;;;;;;;;;;;15.24;67.15;99806.88;4459319;32;33408;-91
2022/10/15 08:26:58;;;;;;;;;;;;;;;15.43;66.77;99807.16;4454199;32;33124;-90
2022/10/15 08:29:33;;;;;;;;;;;;;;;15.42;66.72;99809.84;4442432;32;33811;-90
2022/10/15 08:32:02;;;;;;;;;;;;;;;15.60;66.05;99803.16;4459722;32;34407;-91
2022/10/15 08:34:42;;;;;;;;;;;;;;;15.78;65.59;99807.84;4440395;32;35412;-94
2022/10/15 08:37:12;;;;;;;;;;;;;;;15.81;65.21;99809.50;4454533;32;33638;-91
2022/10/15 08:39:41;;;;;;;;;;;;;;;15.83;64.97;99808.53;4445167;32;34298;-93
2022/10/15 08:42:15;;;;;;;;;;;;;;;15.90;64.61;99806.56;4460651;32;34620;-92
2022/10/15 08:44:44;;;;;;;;;;;;;;;16.17;63.28;99805.63;4453475;32;32578;-90
2022/10/15 08:47:16;;;;;;;;;;;;;;;16.06;63.94;99807.75;4441515;32;33121;-91
2022/10/15 08:49:47;;;;;;;;;;;;;;;16.12;63.03;99810.19;4443481;32;34658;-93
2022/10/15 08:52:20;;;;;;;;;;;;;;;16.09;62.79;99810.28;4440999;32;35387;-90
2022/10/15 08:54:49;;;;;;;;;;;;;;;16.32;62.35;99808.63;4452730;32;33417;-92
2022/10/15 08:57:20;;;;;;;;;;;;;;;16.42;62.37;99804.78;4444067;32;34516;-94
2022/10/15 08:59:52;;;;;;;;;;;;;;;16.48;62.84;99807.19;4445423;32;33437;-93
2022/10/15 09:02:29;;;;;;;;;;;;;;;16.67;61.37;99815.22;4455674;32;34561;-93
2022/10/15 09:05:01;;;;;;;;;;;;;;;16.70;60.59;99803.81;4456069;32;33975;-92
2022/10/15 09:07:38;;;;;;;;;;;;;;;16.72;60.54;99805.47;4442948;32;33597;-90
2022/10/15 09:10:13;;;;;;;;;;;;;;;17.03;59.72;99793.84;4445055;32;34210;-90
2022/10/15 09:12:46;;;;;;;;;;;;;;;17.30;58.51;99802.44;4453490;32;34017;-90
2022/10/15 09:15:16;;;;;;;;;;;;;;;17.45;58.18;99811.47;4436343;32;32915;-94
2022/10/15 09:17:46;;;;;;;;;;;;;;;17.46;59.10;99818.41;4440895;32;35207;-90
2022/10/15 09:20:18;;;;;;;;;;;;;;;17.57;58.71;99825.87;4437765;32;36277;-91
2022/10/15 09:22:56;;;;;;;;;;;;;;;17.63;58.25;99820.34;4442089;32;37716;-93
2022/10/15 09:25:33;;;;;;;;;;;;;;;17.71;57.88;99831.41;4440601;32;35134;-92
2022/10/15 09:28:10;;;;;;;;;;;;;;;17.87;57.30;99832.50;4420220;32;34369;-94
2022/10/15 09:30:43;;;;;;;;;;;;;;;17.94;57.31;99832.28;4457954;32;32665;-91
2022/10/15 09:33:25;;;;;;;;;;;;;;;17.94;57.38;99825.25;4459381;32;34519;-91
2022/10/15 09:36:19;;;;;;;;;;;;;;;18.12;56.97;99831.50;4441475;32;34883;-91
2022/10/15 09:38:53;;;;;;;;;;;;;;;17.98;56.26;99826.84;4448762;32;33202;-92
2022/10/15 09:41:30;;;;;;;;;;;;;;;18.05;57.34;99822.16;4443902;32;35067;-95
2022/10/15 09:44:00;;;;;;;;;;;;;;;18.18;57.16;99822.53;4433839;32;34308;-92
2022/10/15 09:46:47;;;;;;;;;;;;;;;17.98;57.83;99818.13;4433862;32;34629;-91
2022/10/15 09:49:18;;;;;;;;;;;;;;;18.15;56.55;99817.41;4451458;32;33622;-92
2022/10/15 09:51:58;;;;;;;;;;;;;;;17.84;56.30;99819.53;4444715;32;34881;-90
2022/10/15 09:54:30;;;;;;;;;;;;;;;17.89;56.31;99820.19;4443708;32;35153;-95
2022/10/15 09:56:59;;;;;;;;;;;;;;;18.12;55.73;99815.75;4463886;32;33359;-91
2022/10/15 09:59:30;;;;;;;;;;;;;;;18.23;56.42;99818.78;4451673;32;33273;-91
2022/10/15 10:02:17;;;;;;;;;;;;;;;18.65;54.78;99815.22;4447532;32;35458;-92
2022/10/15 10:04:54;;;;;;;;;;;;;;;18.75;54.55;99807.78;4435641;32;34432;-92
2022/10/15 10:07:43;;;;;;;;;;;;;;;18.57;55.32;99816.47;4431585;32;35444;-92
2022/10/15 10:10:54;;;;;;;;;;;;;;;18.51;54.41;99818.44;4423352;32;33832;-92
2022/10/15 11:11:46;;;;;;;;;;;;;;;20.73;48.49;99765.63;4245202;33;35612;-92
2022/10/15 11:34:26;;;;;;;;;;;;;;;20.67;46.92;99728.13;4209428;33;33212;-90
2022/10/15 11:37:28;;;;;;;;;;;;;;;20.56;47.82;99725.25;4237902;33;34123;-92
2022/10/15 11:40:14;;;;;;;;;;;;;;;20.74;47.20;99712.81;4248868;33;32422;-94
2022/10/15 11:43:32;;;;;;;;;;;;;;;20.70;47.80;99718.34;4251183;33;32344;-90
2022/10/15 11:59:54;;;;;;;;;;;;;;;20.82;47.48;99717.66;4280327;33;34750;-96
2022/10/15 12:23:01;;;;;;;;;;;;;;;20.99;46.15;99685.94;4259540;33;35186;-92
2022/10/15 12:26:26;;;;;;;;;;;;;;;20.95;46.13;99691.47;4265242;33;35690;-93
2022/10/15 12:29:35;;;;;;;;;;;;;;;21.13;46.13;99686.97;4241643;33;34443;-91
2022/10/15 12:36:04;;;;;;;;;;;;;;;21.16;45.64;99698.16;4259036;33;35236;-94
2022/10/15 12:43:11;;;;;;;;;;;;;;;20.86;45.97;99698.97;4280641;33;36074;-91
2022/10/15 12:46:06;;;;;;;;;;;;;;;20.82;44.45;99694.78;4282530;33;35259;-91
2022/10/15 12:52:51;;;;;;;;;;;;;;;20.66;45.40;99678.97;4239853;33;34292;-91
2022/10/15 12:55:52;;;;;;;;;;;;;;;20.77;45.42;99680.16;4235833;33;34838;-91
2022/10/15 12:58:57;;;;;;;;;;;;;;;20.65;44.72;99676.41;4234968;33;33993;-92
2022/10/15 13:05:01;;;;;;;;;;;;;;;20.80;46.38;99680.87;4017136;32;34722;-94
2022/10/15 13:07:45;;;;;;;;;;;;;;;20.89;46.75;99675.06;4341755;32;36552;-93
2022/10/15 13:10:23;;;;;;;;;;;;;;;20.62;45.67;99677.44;4328087;32;34343;-91
2022/10/15 13:12:57;;;;;;;;;;;;;;;20.82;45.42;99684.25;4350943;32;34319;-91
2022/10/15 13:15:28;;;;;;;;;;;;;;;20.71;45.11;99691.03;4340196;32;35261;-91
2022/10/15 13:18:06;;;;;;;;;;;;;;;20.81;45.48;99689.63;4337751;32;33997;-92
2022/10/15 13:20:38;;;;;;;;;;;;;;;20.83;46.29;99687.75;4333331;32;33408;-90
2022/10/15 13:23:32;;;;;;;;;;;;;;;20.69;45.90;99693.78;4366870;32;35176;-91
2022/10/15 13:26:17;;;;;;;;;;;;;;;20.51;45.84;99682.41;4364410;32;35271;-92
2022/10/15 13:28:57;;;;;;;;;;;;;;;20.71;46.82;99691.91;4366152;32;34951;-91
2022/10/15 13:31:26;;;;;;;;;;;;;;;20.74;46.41;99686.47;4371538;32;33640;-91
2022/10/15 13:33:59;;;;;;;;;;;;;;;20.64;46.88;99680.84;4368044;32;36476;-90
2022/10/15 13:36:30;;;;;;;;;;;;;;;20.76;46.58;99684.59;4371385;32;33623;-91
2022/10/15 13:39:26;;;;;;;;;;;;;;;20.60;46.84;99686.38;4367431;32;34801;-92
2022/10/15 13:44:48;;;;;;;;;;;;;;;20.40;46.71;99685.62;4361417;32;35086;-91
2022/10/15 13:47:41;;;;;;;;;;;;;;;20.54;47.35;99687.53;4366451;32;35357;-92
2022/10/15 13:50:30;;;;;;;;;;;;;;;20.44;48.05;99692.44;4367998;32;33004;-92
2022/10/15 13:53:08;;;;;;;;;;;;;;;20.39;46.38;99694.50;4365435;32;31332;-93
2022/10/15 13:58:43;;;;;;;;;;;;;;;20.29;47.20;99693.25;4365907;32;34524;-90
2022/10/15 14:01:17;;;;;;;;;;;;;;;20.47;46.33;99691.44;4365065;32;34290;-91
2022/10/15 14:03:59;;;;;;;;;;;;;;;20.37;47.40;99688.44;4372283;32;33331;-92
2022/10/15 14:06:38;;;;;;;;;;;;;;;20.36;47.96;99688.50;4366551;32;33863;-91
2022/10/15 14:09:37;;;;;;;;;;;;;;;20.38;48.11;99686.66;4345463;32;35441;-88
2022/10/15 14:16:05;;;;;;;;;;;;;;;19.84;50.09;99684.22;4365803;32;36146;-92
2022/10/15 14:18:35;;;;;;;;;;;;;;;19.96;48.39;99680.94;4326592;32;34823;-91
2022/10/15 14:21:10;;;;;;;;;;;;;;;20.01;48.96;99685.97;4363803;32;32477;-92
2022/10/15 14:23:38;;;;;;;;;;;;;;;19.97;49.34;99685.28;4365094;32;35039;-90
2022/10/15 14:26:10;;;;;;;;;;;;;;;19.97;49.48;99681.78;4369949;32;33119;-90
2022/10/15 14:28:39;;;;;;;;;;;;;;;19.87;50.05;99684.06;4363321;32;33589;-91
2022/10/15 14:31:10;;;;;;;;;;;;;;;19.97;49.81;99679.16;4365134;32;35530;-91
2022/10/15 14:33:43;;;;;;;;;;;;;;;19.89;49.87;99673.44;4365017;32;33664;-92
2022/10/15 14:36:25;;;;;;;;;;;;;;;19.82;49.89;99665.84;4366678;32;33432;-89
2022/10/15 14:39:25;;;;;;;;;;;;;;;19.76;50.03;99670.56;4367953;32;32414;-90
2022/10/15 14:42:01;;;;;;;;;;;;;;;19.79;48.98;99665.19;4368708;32;34324;-90
2022/10/15 14:44:42;;;;;;;;;;;;;;;19.90;49.26;99662.81;4363145;32;34075;-90
2022/10/15 14:47:15;;;;;;;;;;;;;;;19.77;49.72;99665.25;4363623;32;34124;-90
2022/10/15 14:49:48;;;;;;;;;;;;;;;19.85;48.43;99658.72;4377819;32;34835;-90
2022/10/15 14:52:22;;;;;;;;;;;;;;;19.60;49.03;99673.97;4360763;32;33830;-90
2022/10/15 14:54:59;;;;;;;;;;;;;;;19.56;48.84;99671.56;4367846;32;33606;-90
2022/10/15 14:57:36;;;;;;;;;;;;;;;19.61;49.08;99673.03;4342854;32;1109847;-93
2022/10/15 15:00:09;;;;;;;;;;;;;;;19.52;49.28;99667.38;4365761;32;33657;-88
2022/10/15 15:02:38;;;;;;;;;;;;;;;19.47;49.08;99672.03;4365606;32;34543;-90
2022/10/15 15:05:17;;;;;;;;;;;;;;;19.47;48.63;99667.59;4365160;32;34248;-93
2022/10/15 15:07:50;;;;;;;;;;;;;;;19.53;48.95;99675.22;4364995;32;32740;-90
2022/10/15 15:10:19;;;;;;;;;;;;;;;19.27;49.68;99673.03;4364926;32;33874;-92
2022/10/15 15:12:57;;;;;;;;;;;;;;;19.29;49.85;99674.66;4365944;32;33479;-91
2022/10/15 15:15:26;;;;;;;;;;;;;;;19.47;49.51;99674.66;4360038;32;33189;-90
2022/10/15 15:17:59;;;;;;;;;;;;;;;19.43;49.57;99687.13;4366965;32;33212;-89
2022/10/15 15:20:33;;;;;;;;;;;;;;;19.31;49.97;99691.22;4363196;32;33286;-88
2022/10/15 15:23:07;;;;;;;;;;;;;;;19.24;50.05;99688.97;4368049;32;33842;-89
2022/10/15 15:25:38;;;;;;;;;;;;;;;19.25;50.11;99694.13;4364467;32;32182;-87
2022/10/15 15:28:15;;;;;;;;;;;;;;;19.20;50.34;99693.50;4364124;32;33219;-91
2022/10/15 15:30:50;;;;;;;;;;;;;;;19.16;50.48;99692.81;4370256;32;33301;-88
2022/10/15 15:33:23;;;;;;;;;;;;;;;19.08;50.69;99687.06;4365528;32;33513;-90
2022/10/15 15:35:53;;;;;;;;;;;;;;;19.08;50.72;99694.94;4364560;32;34250;-90
2022/10/15 15:38:29;;;;;;;;;;;;;;;19.17;50.84;99693.66;4364879;32;33594;-91
2022/10/15 15:41:06;;;;;;;;;;;;;;;19.18;50.98;99705.88;4366616;32;34744;-88
2022/10/15 15:43:37;;;;;;;;;;;;;;;19.16;50.94;99697.19;4370939;32;33519;-90